sensor_id;sensor_type;location;lat;lon;timestamp;pressure;altitude;pressure_sealevel;temperature;humidity
11001;BME280;5553;48.506;8.870;2023-05-21T05:39:53;61598.09;;;19.92;100.00
11001;BME280;5553;48.506;8.870;2023-05-21T05:42:21;96194.31;;;13.42;100.00
11001;BME280;5553;48.506;8.870;2023-05-21T05:44:49;114900.13;;;13.42;100.00
11001;BME280;5553;48.506;8.870;2023-05-21T05:47:18;96190.94;;;13.53;100.00
11001;BME280;5553;48.506;8.870;2023-05-21T05:49:52;61598.09;;;-36.88;100.00
11001;BME280;5553;48.506;8.870;2023-05-21T05:52:25;80929.47;;;-144.39;100.00
11001;BME280;5553;48.506;8.870;2023-05-21T05:55:22;61598.09;;;-144.39;100.00
11001;BME280;5553;48.506;8.870;2023-05-21T05:57:56;96183.91;;;13.84;100.00
11001;BME280;5553;48.506;8.870;2023-05-21T06:00:30;96177.13;;;13.88;100.00
11001;BME280;5553;48.506;8.870;2023-05-21T06:03:02;96172.75;;;14.00;100.00
11001;BME280;5553;48.506;8.870;2023-05-21T06:05:35;96168.97;;;14.08;100.00
11001;BME280;5553;48.506;8.870;2023-05-21T06:08:17;96165.38;;;-144.39;100.00
11001;BME280;5553;48.506;8.870;2023-05-21T06:10:53;96165.38;;;14.20;100.00
11001;BME280;5553;48.506;8.870;2023-05-21T06:13:42;61598.09;;;14.44;20.39
11001;BME280;5553;48.506;8.870;2023-05-21T06:16:34;96145.88;;;-144.39;100.00
11001;BME280;5553;48.506;8.870;2023-05-21T06:19:50;96141.81;;;14.91;100.00
11001;BME280;5553;48.506;8.870;2023-05-21T11:39:50;95826.03;;;28.87;53.92
11001;BME280;5553;48.506;8.870;2023-05-21T11:42:32;95826.66;;;27.84;56.02
11001;BME280;5553;48.506;8.870;2023-05-21T11:45:01;95835.75;;;27.97;56.61
11001;BME280;5553;48.506;8.870;2023-05-21T11:47:31;95807.84;;;26.74;56.72
11001;BME280;5553;48.506;8.870;2023-05-21T11:50:00;95807.84;;;26.74;56.72
11001;BME280;5553;48.506;8.870;2023-05-21T11:52:30;95855.50;;;26.92;59.74
11001;BME280;5553;48.506;8.870;2023-05-21T11:55:01;95852.81;;;27.01;58.91
11001;BME280;5553;48.506;8.870;2023-05-21T11:57:29;95834.63;;;27.15;57.68
11001;BME280;5553;48.506;8.870;2023-05-21T11:59:59;95833.06;;;26.60;59.05
11001;BME280;5553;48.506;8.870;2023-05-21T12:02:35;95856.28;;;26.92;59.18
11001;BME280;5553;48.506;8.870;2023-05-21T12:05:04;95898.38;;;27.96;59.99
11001;BME280;5553;48.506;8.870;2023-05-21T12:07:33;95884.91;;;27.56;59.97
11001;BME280;5553;48.506;8.870;2023-05-21T12:10:06;95860.47;;;26.99;59.06
11001;BME280;5553;48.506;8.870;2023-05-21T12:12:35;95840.66;;;25.91;60.22
11001;BME280;5553;48.506;8.870;2023-05-21T12:15:04;95865.41;;;26.43;60.13
11001;BME280;5553;48.506;8.870;2023-05-21T12:17:32;95850.94;;;26.03;60.58
11001;BME280;5553;48.506;8.870;2023-05-21T12:20:01;95859.50;;;25.82;61.29
11001;BME280;5553;48.506;8.870;2023-05-21T12:22:32;95866.59;;;25.78;62.69
11001;BME280;5553;48.506;8.870;2023-05-21T12:25:06;95877.31;;;26.19;61.95
11001;BME280;5553;48.506;8.870;2023-05-21T12:27:35;95879.22;;;26.41;61.28
11001;BME280;5553;48.506;8.870;2023-05-21T12:30:05;95863.84;;;26.73;59.71
11001;BME280;5553;48.506;8.870;2023-05-21T12:32:34;95824.38;;;26.72;57.14
11001;BME280;5553;48.506;8.870;2023-05-21T12:35:02;95813.59;;;27.21;54.69
11001;BME280;5553;48.506;8.870;2023-05-21T12:37:31;95813.59;;;27.21;54.69
11001;BME280;5553;48.506;8.870;2023-05-21T12:40:01;95811.34;;;26.74;55.03
11001;BME280;5553;48.506;8.870;2023-05-21T12:42:35;95820.78;;;27.25;54.53
11001;BME280;5553;48.506;8.870;2023-05-21T12:45:06;95817.75;;;27.18;54.50
11001;BME280;5553;48.506;8.870;2023-05-21T12:47:35;95822.75;;;27.51;54.03
11001;BME280;5553;48.506;8.870;2023-05-21T12:50:07;81204.13;;;27.60;100.00
11001;BME280;5553;48.506;8.870;2023-05-21T12:52:39;95839.47;;;27.35;55.78
11001;BME280;5553;48.506;8.870;2023-05-21T12:55:08;95832.06;;;27.84;53.95
11001;BME280;5553;48.506;8.870;2023-05-21T12:57:39;95800.19;;;27.81;52.03
11001;BME280;5553;48.506;8.870;2023-05-21T13:00:08;95867.81;;;28.39;54.79
11001;BME280;5553;48.506;8.870;2023-05-21T13:02:38;95832.69;;;28.16;53.23
11001;BME280;5553;48.506;8.870;2023-05-21T13:05:08;95834.69;;;29.18;51.28
11001;BME280;5553;48.506;8.870;2023-05-21T13:07:37;95846.63;;;29.64;51.84
11001;BME280;5553;48.506;8.870;2023-05-21T13:10:09;95850.47;;;29.63;52.36
11001;BME280;5553;48.506;8.870;2023-05-21T13:12:39;95787.63;;;29.14;49.38
11001;BME280;5553;48.506;8.870;2023-05-21T13:15:09;95830.31;;;29.35;51.03
11001;BME280;5553;48.506;8.870;2023-05-21T13:17:37;95831.38;;;29.13;51.64
11001;BME280;5553;48.506;8.870;2023-05-21T13:20:07;95845.03;;;28.78;53.42
11001;BME280;5553;48.506;8.870;2023-05-21T13:22:37;95775.44;;;28.18;50.41
11001;BME280;5553;48.506;8.870;2023-05-21T13:25:08;95774.75;;;28.94;48.58
11001;BME280;5553;48.506;8.870;2023-05-21T13:27:39;95800.75;;;28.65;50.25
11001;BME280;5553;48.506;8.870;2023-05-21T13:30:08;95810.84;;;29.62;48.92
11001;BME280;5553;48.506;8.870;2023-05-21T13:32:37;95811.03;;;28.80;50.29
11001;BME280;5553;48.506;8.870;2023-05-21T13:35:07;95793.47;;;28.22;50.89
11001;BME280;5553;48.506;8.870;2023-05-21T13:37:37;95821.72;;;28.86;50.86
11001;BME280;5553;48.506;8.870;2023-05-21T13:40:07;95828.00;;;28.69;51.62
11001;BME280;5553;48.506;8.870;2023-05-21T13:42:39;95764.94;;;27.47;49.30
11001;BME280;5553;48.506;8.870;2023-05-21T13:45:09;95793.91;;;27.55;50.93
11001;BME280;5553;48.506;8.870;2023-05-21T13:47:38;95809.38;;;27.46;51.61
11001;BME280;5553;48.506;8.870;2023-05-21T13:50:07;95805.22;;;26.91;52.47
11001;BME280;5553;48.506;8.870;2023-05-21T13:52:36;95821.94;;;26.62;53.97
11001;BME280;5553;48.506;8.870;2023-05-21T13:55:06;95796.66;;;26.13;53.25
11001;BME280;5553;48.506;8.870;2023-05-21T13:57:34;95796.97;;;25.89;53.40
11001;BME280;5553;48.506;8.870;2023-05-21T14:00:08;95822.25;;;25.93;55.12
11001;BME280;5553;48.506;8.870;2023-05-21T14:02:40;95820.66;;;25.42;55.51
11001;BME280;5553;48.506;8.870;2023-05-21T14:05:09;95858.03;;;25.48;57.89
11001;BME280;5553;48.506;8.870;2023-05-21T14:07:38;95851.44;;;24.86;59.21
11001;BME280;5553;48.506;8.870;2023-05-21T14:10:07;95838.25;;;24.98;57.54
11001;BME280;5553;48.506;8.870;2023-05-21T14:12:36;95829.09;;;24.52;58.48
11001;BME280;5553;48.506;8.870;2023-05-21T18:46:38;95995.91;;;19.14;91.93
11001;BME280;5553;48.506;8.870;2023-05-21T18:49:09;95993.25;;;18.82;94.32
11001;BME280;5553;48.506;8.870;2023-05-21T18:51:39;96008.13;;;18.73;96.26
11001;BME280;5553;48.506;8.870;2023-05-21T18:54:10;96014.72;;;18.60;97.71
11001;BME280;5553;48.506;8.870;2023-05-21T18:59:07;96019.69;;;18.24;100.00
11001;BME280;5553;48.506;8.870;2023-05-21T19:01:38;96051.34;;;17.72;100.00
11001;BME280;5553;48.506;8.870;2023-05-21T19:04:06;96074.78;;;17.48;100.00
11001;BME280;5553;48.506;8.870;2023-05-21T19:06:36;96075.91;;;17.35;100.00
11001;BME280;5553;48.506;8.870;2023-05-21T19:09:05;96075.59;;;17.32;100.00
11001;BME280;5553;48.506;8.870;2023-05-21T19:11:33;96070.91;;;17.39;100.00
11001;BME280;5553;48.506;8.870;2023-05-21T19:14:02;96066.38;;;17.39;100.00
11001;BME280;5553;48.506;8.870;2023-05-21T19:16:30;96066.22;;;17.29;100.00
11001;BME280;5553;48.506;8.870;2023-05-21T19:19:01;96064.13;;;17.31;100.00
11001;BME280;5553;48.506;8.870;2023-05-21T19:21:30;96058.72;;;17.26;100.00
11001;BME280;5553;48.506;8.870;2023-05-21T19:23:58;96065.09;;;17.25;100.00
11001;BME280;5553;48.506;8.870;2023-05-21T19:28:53;96076.72;;;17.02;100.00
11001;BME280;5553;48.506;8.870;2023-05-21T19:31:22;96083.75;;;16.91;100.00
11001;BME280;5553;48.506;8.870;2023-05-21T19:33:50;96087.69;;;16.72;100.00
11001;BME280;5553;48.506;8.870;2023-05-21T19:36:23;96097.72;;;16.81;100.00
11001;BME280;5553;48.506;8.870;2023-05-21T19:38:51;96091.38;;;16.71;100.00
11001;BME280;5553;48.506;8.870;2023-05-21T19:41:20;96100.75;;;16.73;100.00
11001;BME280;5553;48.506;8.870;2023-05-21T19:43:48;96106.22;;;16.67;100.00
11001;BME280;5553;48.506;8.870;2023-05-21T19:46:19;96102.66;;;16.61;100.00
11001;BME280;5553;48.506;8.870;2023-05-21T19:48:49;96114.56;;;16.42;100.00
11001;BME280;5553;48.506;8.870;2023-05-21T19:51:17;96109.25;;;16.30;100.00
11001;BME280;5553;48.506;8.870;2023-05-21T19:53:48;96114.31;;;16.15;100.00
11001;BME280;5553;48.506;8.870;2023-05-21T19:58:45;96121.03;;;16.05;100.00
11001;BME280;5553;48.506;8.870;2023-05-21T20:01:14;96119.09;;;16.01;100.00
11001;BME280;5553;48.506;8.870;2023-05-21T20:03:43;96114.69;;;15.95;100.00
11001;BME280;5553;48.506;8.870;2023-05-21T20:06:13;96133.44;;;15.88;100.00
11001;BME280;5553;48.506;8.870;2023-05-21T20:08:44;96119.69;;;15.91;100.00
11001;BME280;5553;48.506;8.870;2023-05-21T20:11:15;96116.81;;;15.81;100.00
11001;BME280;5553;48.506;8.870;2023-05-21T20:13:44;96120.84;;;15.83;100.00
11001;BME280;5553;48.506;8.870;2023-05-21T20:16:14;96115.88;;;15.75;100.00
11001;BME280;5553;48.506;8.870;2023-05-21T20:18:43;96122.50;;;15.73;100.00
11001;BME280;5553;48.506;8.870;2023-05-21T20:21:12;96119.59;;;15.74;100.00
11001;BME280;5553;48.506;8.870;2023-05-21T20:23:42;96114.25;;;15.74;100.00
11001;BME280;5553;48.506;8.870;2023-05-21T20:26:10;96116.13;;;15.74;100.00
11001;BME280;5553;48.506;8.870;2023-05-21T20:28:41;96118.97;;;15.60;100.00
11001;BME280;5553;48.506;8.870;2023-05-21T20:31:10;96126.03;;;15.55;100.00
11001;BME280;5553;48.506;8.870;2023-05-21T20:33:38;96134.38;;;15.47;100.00
11001;BME280;5553;48.506;8.870;2023-05-21T20:36:06;96133.56;;;15.46;100.00
11001;BME280;5553;48.506;8.870;2023-05-21T20:38:35;96131.22;;;15.38;100.00
11001;BME280;5553;48.506;8.870;2023-05-21T20:41:06;96132.88;;;15.39;100.00
11001;BME280;5553;48.506;8.870;2023-05-21T20:43:34;96138.19;;;15.39;100.00
11001;BME280;5553;48.506;8.870;2023-05-21T20:46:05;96136.78;;;15.36;100.00
11001;BME280;5553;48.506;8.870;2023-05-21T20:48:33;96134.13;;;15.36;100.00
11001;BME280;5553;48.506;8.870;2023-05-21T20:51:02;96130.78;;;15.29;100.00
11001;BME280;5553;48.506;8.870;2023-05-21T20:53:31;96133.44;;;15.29;100.00
11001;BME280;5553;48.506;8.870;2023-05-21T20:58:27;96132.03;;;15.15;100.00
11001;BME280;5553;48.506;8.870;2023-05-21T21:00:55;96139.47;;;14.83;100.00
11001;BME280;5553;48.506;8.870;2023-05-21T21:03:28;96141.56;;;14.81;100.00
11001;BME280;5553;48.506;8.870;2023-05-21T21:05:58;96137.25;;;14.80;100.00
11001;BME280;5553;48.506;8.870;2023-05-21T21:08:27;96129.94;;;14.63;100.00
11001;BME280;5553;48.506;8.870;2023-05-21T21:10:55;96138.81;;;14.57;100.00
11001;BME280;5553;48.506;8.870;2023-05-21T21:13:23;96140.00;;;14.25;100.00
11001;BME280;5553;48.506;8.870;2023-05-21T21:15:52;96141.56;;;14.14;100.00
11001;BME280;5553;48.506;8.870;2023-05-21T21:18:20;96149.41;;;14.09;100.00
11001;BME280;5553;48.506;8.870;2023-05-21T21:20:51;96147.84;;;14.01;100.00
11001;BME280;5553;48.506;8.870;2023-05-21T21:23:19;96154.78;;;14.02;100.00
11001;BME280;5553;48.506;8.870;2023-05-21T21:25:48;96152.41;;;13.94;100.00
11001;BME280;5553;48.506;8.870;2023-05-21T21:28:16;96160.72;;;13.97;100.00
11001;BME280;5553;48.506;8.870;2023-05-21T21:30:44;96154.47;;;13.92;100.00
11001;BME280;5553;48.506;8.870;2023-05-21T21:33:13;96152.53;;;13.81;100.00
11001;BME280;5553;48.506;8.870;2023-05-21T21:35:42;96150.94;;;13.80;100.00
11001;BME280;5553;48.506;8.870;2023-05-21T21:38:13;96156.84;;;14.00;100.00
11001;BME280;5553;48.506;8.870;2023-05-21T21:40:41;96158.97;;;13.91;100.00
11001;BME280;5553;48.506;8.870;2023-05-21T21:43:09;96151.91;;;13.85;100.00
11001;BME280;5553;48.506;8.870;2023-05-21T21:45:38;96149.81;;;13.87;100.00
11001;BME280;5553;48.506;8.870;2023-05-21T21:48:06;96153.44;;;13.74;100.00
11001;BME280;5553;48.506;8.870;2023-05-21T21:50:35;96156.91;;;13.75;100.00
11001;BME280;5553;48.506;8.870;2023-05-21T21:53:03;96165.56;;;13.64;100.00
11001;BME280;5553;48.506;8.870;2023-05-21T21:55:36;96172.69;;;13.63;100.00
11001;BME280;5553;48.506;8.870;2023-05-21T21:58:05;96170.78;;;13.70;100.00
11001;BME280;5553;48.506;8.870;2023-05-21T22:00:33;96167.56;;;13.68;100.00
11001;BME280;5553;48.506;8.870;2023-05-21T22:03:01;96166.53;;;13.69;100.00
11001;BME280;5553;48.506;8.870;2023-05-21T22:05:33;96163.81;;;13.58;100.00
11001;BME280;5553;48.506;8.870;2023-05-21T22:08:02;96163.69;;;13.46;100.00
11001;BME280;5553;48.506;8.870;2023-05-21T22:10:30;96152.28;;;13.20;100.00
11001;BME280;5553;48.506;8.870;2023-05-21T22:13:04;96161.44;;;13.24;100.00
11001;BME280;5553;48.506;8.870;2023-05-21T22:15:33;96165.94;;;13.17;100.00
11001;BME280;5553;48.506;8.870;2023-05-21T22:18:02;96167.78;;;13.17;100.00
11001;BME280;5553;48.506;8.870;2023-05-21T22:20:33;96171.50;;;13.09;100.00
11001;BME280;5553;48.506;8.870;2023-05-21T22:23:02;96182.88;;;13.16;100.00
11001;BME280;5553;48.506;8.870;2023-05-21T22:25:30;96170.72;;;13.02;100.00
11001;BME280;5553;48.506;8.870;2023-05-21T22:27:58;96174.78;;;13.04;100.00
11001;BME280;5553;48.506;8.870;2023-05-21T22:30:29;96173.56;;;13.07;100.00
11001;BME280;5553;48.506;8.870;2023-05-21T22:32:58;96187.22;;;13.04;100.00
11001;BME280;5553;48.506;8.870;2023-05-21T22:35:26;96182.69;;;13.11;100.00
11001;BME280;5553;48.506;8.870;2023-05-21T22:37:55;96185.53;;;13.16;100.00
11001;BME280;5553;48.506;8.870;2023-05-21T22:40:23;96175.59;;;13.05;100.00
11001;BME280;5553;48.506;8.870;2023-05-21T22:42:51;96171.13;;;12.74;100.00
11001;BME280;5553;48.506;8.870;2023-05-21T22:45:20;96182.81;;;12.91;100.00
11001;BME280;5553;48.506;8.870;2023-05-21T22:47:51;96190.38;;;12.88;100.00
11001;BME280;5553;48.506;8.870;2023-05-21T22:50:20;96177.16;;;12.88;100.00
11001;BME280;5553;48.506;8.870;2023-05-21T22:52:49;96169.25;;;12.81;100.00
11001;BME280;5553;48.506;8.870;2023-05-21T22:55:18;96175.78;;;12.78;100.00
11001;BME280;5553;48.506;8.870;2023-05-21T22:57:46;96179.63;;;12.83;100.00
11001;BME280;5553;48.506;8.870;2023-05-21T23:00:15;96181.06;;;12.78;100.00
11001;BME280;5553;48.506;8.870;2023-05-21T23:02:44;96183.53;;;12.73;100.00
11001;BME280;5553;48.506;8.870;2023-05-21T23:05:15;96180.91;;;12.73;100.00
11001;BME280;5553;48.506;8.870;2023-05-21T23:07:43;96187.03;;;12.67;100.00
11001;BME280;5553;48.506;8.870;2023-05-21T23:10:11;96184.28;;;12.49;100.00
11001;BME280;5553;48.506;8.870;2023-05-21T23:12:40;96185.75;;;12.45;100.00
11001;BME280;5553;48.506;8.870;2023-05-21T23:17:35;96184.13;;;12.37;100.00
11001;BME280;5553;48.506;8.870;2023-05-21T23:20:05;96194.25;;;12.47;100.00
11001;BME280;5553;48.506;8.870;2023-05-21T23:22:37;96182.09;;;12.39;100.00
11001;BME280;5553;48.506;8.870;2023-05-21T23:25:07;96184.50;;;12.41;100.00
11001;BME280;5553;48.506;8.870;2023-05-21T23:27:35;96175.66;;;12.22;100.00
11001;BME280;5553;48.506;8.870;2023-05-21T23:30:05;96182.97;;;12.26;100.00
11001;BME280;5553;48.506;8.870;2023-05-21T23:32:33;96184.38;;;12.29;100.00
11001;BME280;5553;48.506;8.870;2023-05-21T23:35:01;96179.34;;;12.21;100.00
11001;BME280;5553;48.506;8.870;2023-05-21T23:39:59;96181.75;;;12.22;100.00
11001;BME280;5553;48.506;8.870;2023-05-21T23:42:28;96187.72;;;12.11;100.00
11001;BME280;5553;48.506;8.870;2023-05-21T23:44:56;96184.69;;;12.01;100.00
11001;BME280;5553;48.506;8.870;2023-05-21T23:47:24;96186.91;;;12.04;100.00
11001;BME280;5553;48.506;8.870;2023-05-21T23:49:53;96183.47;;;11.97;100.00
11001;BME280;5553;48.506;8.870;2023-05-21T23:52:21;96194.03;;;12.03;100.00
11001;BME280;5553;48.506;8.870;2023-05-21T23:54:49;96195.66;;;11.98;100.00
11001;BME280;5553;48.506;8.870;2023-05-21T23:57:20;96183.50;;;11.90;100.00
11001;BME280;5553;48.506;8.870;2023-05-21T23:59:48;96194.25;;;11.82;100.00
